Time;durP1;ratioP1;P1;durP2;ratioP2;P2;SDS_P1;SDS_P2;PMS_P1;PMS_P2;Temp;Humidity;BMP_temperature;BMP_pressure;BME280_temperature;BME280_humidity;BME280_pressure;Samples;Min_cycle;Max_cycle;Signal;HPM_P1;HPM_P2
2022/11/02 05:02:19;;;;;;;1.52;0.30;;;11.90;99.90;;;;;;6106726;23;20222;-69
2022/11/02 05:04:45;;;;;;;0.45;0.45;;;11.90;99.90;;;;;;6117375;23;20197;-70
2022/11/02 05:07:12;;;;;;;3.15;0.75;;;11.90;99.90;;;;;;6104769;23;20634;-69
2022/11/02 05:09:41;;;;;;;0.60;0.60;;;11.90;99.90;;;;;;6094180;23;20186;-69
2022/11/02 05:12:08;;;;;;;0.30;0.30;;;11.90;99.90;;;;;;6094595;23;20218;-69
2022/11/02 05:14:35;;;;;;;0.82;0.80;;;11.90;99.90;;;;;;6092725;23;20182;-69
2022/11/02 05:17:02;;;;;;;3.03;0.73;;;11.80;99.90;;;;;;6095466;23;20696;-70
2022/11/02 05:19:30;;;;;;;1.95;1.50;;;11.80;99.90;;;;;;6095800;23;20259;-70
2022/11/02 05:21:56;;;;;;;1.05;0.80;;;11.70;99.90;;;;;;6095655;23;20206;-71
2022/11/02 05:24:23;;;;;;;4.45;0.70;;;11.70;99.90;;;;;;6095428;23;20181;-70
2022/11/02 05:26:50;;;;;;;0.93;0.50;;;11.70;99.90;;;;;;6095604;23;20272;-70
2022/11/02 05:29:16;;;;;;;0.40;0.40;;;11.70;99.90;;;;;;6094222;23;20195;-70
2022/11/02 05:31:43;;;;;;;5.45;0.93;;;11.70;99.90;;;;;;6094282;23;20585;-70
2022/11/02 05:34:10;;;;;;;2.97;0.95;;;11.80;99.90;;;;;;6094412;23;20183;-70
2022/11/02 05:36:38;;;;;;;0.30;0.30;;;11.70;99.90;;;;;;6094013;23;20182;-71
2022/11/02 05:39:05;;;;;;;0.70;0.70;;;11.70;99.90;;;;;;6092824;23;20181;-72
2022/11/02 05:41:31;;;;;;;1.48;0.45;;;11.70;99.90;;;;;;6093485;23;20203;-71
2022/11/02 05:43:58;;;;;;;1.25;0.82;;;11.70;99.90;;;;;;6093259;23;20206;-70
2022/11/02 05:46:25;;;;;;;11.07;1.05;;;11.70;99.90;;;;;;6094155;23;20207;-71
2022/11/02 05:48:51;;;;;;;0.50;0.50;;;11.70;99.90;;;;;;6094078;23;20188;-71
2022/11/02 05:51:18;;;;;;;0.30;0.30;;;11.70;99.90;;;;;;6094869;23;20213;-71
2022/11/02 05:53:46;;;;;;;1.85;0.52;;;11.70;99.90;;;;;;6094084;23;20504;-71
2022/11/02 05:56:13;;;;;;;5.10;1.13;;;11.80;99.90;;;;;;6094126;23;20186;-70
2022/11/02 05:58:40;;;;;;;0.77;0.63;;;11.80;99.90;;;;;;6094069;23;20195;-70
2022/11/02 06:01:08;;;;;;;3.05;0.73;;;11.80;99.90;;;;;;6093762;23;20209;-71
2022/11/02 06:03:35;;;;;;;0.30;0.30;;;11.80;99.90;;;;;;6093850;23;20182;-71
2022/11/02 06:06:04;;;;;;;0.63;0.63;;;11.80;99.90;;;;;;6093232;23;20214;-71
2022/11/02 06:08:32;;;;;;;3.72;0.55;;;11.80;99.90;;;;;;6094161;23;20183;-71
2022/11/02 06:11:03;;;;;;;0.30;0.30;;;11.80;99.90;;;;;;6094347;23;20229;-70
2022/11/02 06:13:30;;;;;;;1.27;0.95;;;11.80;99.90;;;;;;6093920;23;20181;-71
2022/11/02 06:15:59;;;;;;;15.10;1.30;;;11.80;99.90;;;;;;6093350;23;20181;-70
2022/11/02 06:18:25;;;;;;;3.83;0.65;;;11.70;99.90;;;;;;6094615;23;20192;-71
2022/11/02 06:20:52;;;;;;;0.50;0.50;;;11.60;99.90;;;;;;6093827;23;20209;-70
2022/11/02 06:23:19;;;;;;;0.50;0.50;;;11.60;99.90;;;;;;6094317;23;20185;-70
2022/11/02 06:25:51;;;;;;;4.05;0.68;;;11.50;99.90;;;;;;6093840;23;20488;-70
2022/11/02 06:28:19;;;;;;;3.25;0.68;;;11.50;99.90;;;;;;6093837;23;20170;-70
2022/11/02 06:30:46;;;;;;;1.98;0.68;;;11.50;99.90;;;;;;6093626;23;20202;-70
2022/11/02 06:33:13;;;;;;;1.00;1.00;;;11.50;99.90;;;;;;6094054;23;20185;-70
2022/11/02 06:35:39;;;;;;;8.70;1.20;;;11.50;99.90;;;;;;6094386;23;20178;-70
2022/11/02 06:38:06;;;;;;;0.68;0.57;;;11.60;99.90;;;;;;6094341;23;20754;-71
2022/11/02 06:40:33;;;;;;;1.00;0.60;;;11.60;99.90;;;;;;6094137;23;20228;-70
2022/11/02 06:42:59;;;;;;;2.20;0.63;;;11.70;99.90;;;;;;6094028;23;20292;-72
2022/11/02 06:45:27;;;;;;;8.75;0.95;;;11.70;99.90;;;;;;6094624;23;20205;-71
2022/11/02 06:47:54;;;;;;;7.38;1.40;;;11.80;99.90;;;;;;6093934;23;20183;-70
2022/11/02 06:50:21;;;;;;;0.93;0.63;;;11.80;99.90;;;;;;6094976;23;20186;-71
2022/11/02 06:52:48;;;;;;;1.75;0.77;;;11.80;99.90;;;;;;6094293;23;20189;-70
2022/11/02 06:55:15;;;;;;;1.23;0.45;;;11.80;99.90;;;;;;6095401;23;20183;-72
2022/11/02 06:57:43;;;;;;;1.23;0.85;;;11.90;99.90;;;;;;6093767;23;20230;-71
2022/11/02 07:00:12;;;;;;;4.00;0.63;;;11.90;99.90;;;;;;6095155;23;20505;-72
2022/11/02 07:02:40;;;;;;;0.60;0.45;;;11.90;99.90;;;;;;6095052;23;20193;-71
2022/11/02 07:05:08;;;;;;;1.15;0.55;;;12.00;99.90;;;;;;6096028;23;20186;-71
2022/11/02 07:07:35;;;;;;;1.67;0.53;;;12.00;99.90;;;;;;6095595;23;20564;-71
2022/11/02 07:10:02;;;;;;;2.00;0.70;;;12.00;99.90;;;;;;6096938;23;20427;-71
2022/11/02 07:12:28;;;;;;;0.32;0.32;;;12.00;99.90;;;;;;6096721;23;20545;-72
2022/11/02 07:14:55;;;;;;;3.03;0.50;;;12.00;99.90;;;;;;6096152;23;20189;-71
2022/11/02 07:17:22;;;;;;;2.33;0.57;;;12.00;99.90;;;;;;6096608;23;20186;-71
2022/11/02 07:19:50;;;;;;;1.75;0.75;;;12.00;99.90;;;;;;6096247;23;20194;-72
2022/11/02 07:22:16;;;;;;;1.75;1.10;;;12.00;99.90;;;;;;6096698;23;20223;-71
2022/11/02 07:24:43;;;;;;;0.90;0.47;;;12.00;99.90;;;;;;6096287;23;20182;-72
2022/11/02 07:27:10;;;;;;;0.55;0.52;;;12.10;99.90;;;;;;6095117;23;20310;-71
2022/11/02 07:29:36;;;;;;;1.65;1.05;;;12.10;99.90;;;;;;6104327;23;20182;-71
2022/11/02 07:32:05;;;;;;;0.57;0.57;;;12.10;99.90;;;;;;6096372;23;20207;-72
2022/11/02 07:34:32;;;;;;;0.50;0.50;;;12.10;99.90;;;;;;6094474;23;20513;-72
2022/11/02 07:37:00;;;;;;;0.52;0.52;;;12.10;99.90;;;;;;6095340;23;20645;-71
2022/11/02 07:39:26;;;;;;;4.75;1.00;;;12.10;99.90;;;;;;6095685;23;20184;-70
2022/11/02 07:41:53;;;;;;;1.30;0.57;;;12.20;99.90;;;;;;6095734;23;20203;-72
2022/11/02 07:44:20;;;;;;;0.90;0.73;;;12.20;99.90;;;;;;6094053;23;20191;-70
2022/11/02 07:46:46;;;;;;;2.83;1.13;;;12.20;99.90;;;;;;6095054;23;20470;-70
2022/11/02 07:49:13;;;;;;;0.50;0.50;;;12.30;99.90;;;;;;6096728;23;20429;-70
2022/11/02 07:51:40;;;;;;;5.93;1.00;;;12.40;99.90;;;;;;6096033;23;20446;-70
2022/11/02 07:54:08;;;;;;;0.83;0.80;;;12.50;99.90;;;;;;6095779;23;20757;-70
2022/11/02 07:56:35;;;;;;;3.37;0.53;;;12.60;99.90;;;;;;6094470;23;20756;-70
2022/11/02 07:59:02;;;;;;;0.43;0.43;;;12.60;99.90;;;;;;6095273;23;20450;-70
2022/11/02 08:01:28;;;;;;;1.87;0.70;;;12.60;99.90;;;;;;6094895;23;20453;-70
2022/11/02 08:03:55;;;;;;;2.00;1.57;;;12.60;99.90;;;;;;6094481;23;20913;-70
2022/11/02 08:06:22;;;;;;;2.47;0.90;;;12.60;99.90;;;;;;6094372;23;20450;-70
2022/11/02 08:08:49;;;;;;;1.60;0.40;;;12.60;99.90;;;;;;6095460;23;20426;-70
2022/11/02 08:11:17;;;;;;;1.00;1.00;;;12.60;99.90;;;;;;6095829;23;20452;-70
2022/11/02 08:13:43;;;;;;;1.80;0.77;;;12.60;99.90;;;;;;6094818;23;20758;-70
2022/11/02 08:16:10;;;;;;;0.47;0.47;;;12.60;99.90;;;;;;6094040;23;20722;-71
2022/11/02 08:18:36;;;;;;;0.90;0.90;;;12.70;99.90;;;;;;6094555;23;20426;-70
2022/11/02 08:21:04;;;;;;;0.33;0.30;;;12.80;99.90;;;;;;6095684;23;20457;-70
2022/11/02 08:23:30;;;;;;;2.00;1.07;;;12.80;99.90;;;;;;6094842;23;20489;-71
2022/11/02 08:25:59;;;;;;;0.70;0.70;;;12.80;99.90;;;;;;6095042;23;21179;-70
2022/11/02 08:28:30;;;;;;;2.77;1.00;;;12.90;99.90;;;;;;6093917;23;20426;-70
2022/11/02 08:30:58;;;;;;;3.97;0.67;;;12.90;99.90;;;;;;6093998;23;20968;-70
2022/11/02 08:33:24;;;;;;;0.90;0.90;;;13.10;99.90;;;;;;6094429;23;20426;-69
2022/11/02 08:35:52;;;;;;;3.23;1.30;;;13.30;99.90;;;;;;6095246;23;20424;-69
2022/11/02 08:38:21;;;;;;;5.43;0.53;;;13.40;99.90;;;;;;6094575;23;20428;-70
2022/11/02 08:40:48;;;;;;;0.67;0.67;;;13.40;99.90;;;;;;6094886;23;20840;-71
2022/11/02 08:43:15;;;;;;;4.40;1.20;;;13.30;99.90;;;;;;6094701;23;20433;-71
2022/11/02 08:45:44;;;;;;;1.80;1.20;;;13.40;99.90;;;;;;6094501;23;20455;-70
2022/11/02 08:48:11;;;;;;;0.50;0.50;;;13.40;99.90;;;;;;6094982;23;20427;-72
2022/11/02 08:50:38;;;;;;;4.83;1.03;;;13.40;99.90;;;;;;6094921;23;20463;-71
2022/11/02 08:53:05;;;;;;;1.60;0.70;;;13.50;99.90;;;;;;6094765;23;20438;-70
2022/11/02 08:55:32;;;;;;;2.57;0.40;;;13.50;99.90;;;;;;6095753;23;20435;-70
2022/11/02 08:57:59;;;;;;;1.43;0.57;;;13.60;99.90;;;;;;6094003;23;20530;-70
2022/11/02 09:00:28;;;;;;;0.57;0.57;;;13.60;99.90;;;;;;6093599;23;20434;-71
2022/11/02 09:03:04;;;;;;;2.73;0.40;;;13.60;99.90;;;;;;6094347;23;20414;-70
2022/11/02 09:05:33;;;;;;;4.37;1.03;;;13.70;99.90;;;;;;6094790;23;20449;-70
2022/11/02 09:08:01;;;;;;;0.40;0.40;;;13.70;99.90;;;;;;6095201;23;20428;-71
2022/11/02 09:10:30;;;;;;;0.67;0.67;;;13.70;99.90;;;;;;6094157;23;20428;-72
2022/11/02 09:12:59;;;;;;;1.60;0.70;;;13.70;99.90;;;;;;6094690;23;20427;-71
2022/11/02 09:15:26;;;;;;;5.60;1.97;;;13.70;99.90;;;;;;6095613;23;20435;-71
2022/11/02 09:17:53;;;;;;;1.93;0.90;;;13.80;99.90;;;;;;6096837;23;20424;-70
2022/11/02 09:20:22;;;;;;;2.03;0.70;;;13.80;99.90;;;;;;6095145;23;20428;-71
2022/11/02 09:22:49;;;;;;;4.13;0.80;;;13.80;99.90;;;;;;6093859;23;20744;-70
2022/11/02 09:25:16;;;;;;;1.80;0.87;;;13.90;99.90;;;;;;6094655;23;20427;-70
2022/11/02 09:27:44;;;;;;;1.47;0.57;;;13.90;99.90;;;;;;6093984;23;20456;-70
2022/11/02 09:30:12;;;;;;;2.10;1.33;;;13.90;99.90;;;;;;6093236;23;20449;-70
2022/11/02 09:32:39;;;;;;;2.53;0.40;;;13.90;99.90;;;;;;6093551;23;20899;-70
2022/11/02 09:35:08;;;;;;;0.50;0.50;;;13.90;99.90;;;;;;6094412;23;20428;-70
2022/11/02 09:37:37;;;;;;;1.63;0.93;;;14.00;99.90;;;;;;6094657;23;20439;-70
2022/11/02 09:40:04;;;;;;;0.87;0.60;;;14.10;99.90;;;;;;6093702;23;20427;-70
2022/11/02 09:42:40;;;;;;;3.13;0.63;;;14.10;99.90;;;;;;6093300;23;20902;-71
2022/11/02 09:45:11;;;;;;;0.40;0.40;;;14.20;99.90;;;;;;6093564;23;20442;-70
2022/11/02 09:47:44;;;;;;;0.70;0.70;;;14.20;99.90;;;;;;6094590;23;20444;-69
2022/11/02 09:50:19;;;;;;;2.67;0.40;;;14.20;99.90;;;;;;6093588;23;20411;-71
2022/11/02 09:52:53;;;;;;;7.53;0.70;;;14.20;99.90;;;;;;6093647;23;20428;-70
2022/11/02 09:55:26;;;;;;;1.90;1.13;;;14.10;99.90;;;;;;6094398;23;20431;-70
2022/11/02 09:57:59;;;;;;;0.50;0.50;;;14.10;99.90;;;;;;6093533;23;20728;-71
2022/11/02 10:00:30;;;;;;;1.70;1.27;;;14.20;99.90;;;;;;6092691;23;20412;-70
2022/11/02 10:03:05;;;;;;;2.67;1.13;;;14.30;99.90;;;;;;6093378;23;20441;-70
2022/11/02 10:05:41;;;;;;;1.33;1.00;;;14.40;99.90;;;;;;6096534;23;20439;-69
2022/11/02 10:08:19;;;;;;;0.87;0.87;;;14.30;99.90;;;;;;6095190;23;20436;-71
2022/11/02 10:11:01;;;;;;;1.60;0.80;;;14.30;99.90;;;;;;6093645;23;20803;-70
2022/11/02 10:13:36;;;;;;;3.70;1.23;;;14.20;99.90;;;;;;6093454;23;20418;-70
2022/11/02 10:16:07;;;;;;;3.30;0.77;;;14.10;99.90;;;;;;6094266;23;20411;-70
2022/11/02 10:18:36;;;;;;;3.80;2.10;;;14.00;99.90;;;;;;6094111;23;20886;-69
2022/11/02 10:21:08;;;;;;;0.60;0.60;;;14.00;99.90;;;;;;6093456;23;20478;-70
2022/11/02 10:23:39;;;;;;;0.20;0.20;;;13.90;99.90;;;;;;6094820;23;20695;-70
2022/11/02 10:26:12;;;;;;;0.67;0.67;;;13.90;99.90;;;;;;6094679;23;20519;-70
2022/11/02 10:28:43;;;;;;;1.70;0.50;;;13.90;99.90;;;;;;6069270;23;20484;-70
2022/11/02 10:31:20;;;;;;;3.17;1.03;;;13.90;99.90;;;;;;6094488;23;20515;-71
2022/11/02 10:33:48;;;;;;;0.93;0.83;;;14.00;99.90;;;;;;6094466;23;20507;-71
2022/11/02 10:36:28;;;;;;;0.40;0.40;;;14.00;99.90;;;;;;6095027;23;20487;-71
2022/11/02 10:39:09;;;;;;;0.53;0.53;;;14.10;99.90;;;;;;6094256;23;20912;-70
2022/11/02 10:41:53;;;;;;;2.83;0.77;;;14.20;99.90;;;;;;6096121;23;20445;-72
2022/11/02 10:44:32;;;;;;;0.57;0.57;;;14.20;99.90;;;;;;6095734;23;20415;-71
2022/11/02 10:47:08;;;;;;;2.37;0.30;;;14.30;99.90;;;;;;6098084;23;20459;-71
2022/11/02 10:50:06;;;;;;;0.23;0.23;;;14.30;99.90;;;;;;6096987;23;20415;-71
2022/11/02 10:52:37;;;;;;;0.63;0.60;;;14.40;99.90;;;;;;6097475;23;20475;-69
2022/11/02 10:55:13;;;;;;;2.83;0.57;;;14.20;99.90;;;;;;6098270;23;20433;-71
2022/11/02 10:57:40;;;;;;;0.57;0.27;;;14.10;99.90;;;;;;6097364;23;20414;-71
2022/11/02 11:00:31;;;;;;;3.43;1.10;;;14.00;99.90;;;;;;6095951;23;20914;-71
2022/11/02 11:03:06;;;;;;;0.50;0.50;;;13.90;99.90;;;;;;6096503;23;20886;-71
2022/11/02 11:05:35;;;;;;;0.40;0.40;;;13.90;99.90;;;;;;6096430;23;20539;-71
2022/11/02 11:08:03;;;;;;;0.93;0.90;;;13.90;99.90;;;;;;6096885;23;20447;-72
2022/11/02 11:10:36;;;;;;;0.97;0.50;;;13.90;99.90;;;;;;6095813;23;20453;-70
2022/11/02 11:13:06;;;;;;;4.57;1.43;;;13.90;99.90;;;;;;6094972;23;20569;-70
2022/11/02 11:15:34;;;;;;;2.40;0.30;;;13.80;99.90;;;;;;6095533;23;20430;-70
2022/11/02 11:18:12;;;;;;;0.40;0.40;;;13.70;99.90;;;;;;6094882;23;20455;-70
2022/11/02 11:20:41;;;;;;;0.60;0.60;;;13.60;99.90;;;;;;6096239;23;20494;-70
2022/11/02 11:23:16;;;;;;;2.10;0.37;;;13.40;99.90;;;;;;6094440;23;20811;-71
2022/11/02 11:25:54;;;;;;;0.53;0.53;;;13.30;99.90;;;;;;6096612;23;20426;-70
2022/11/02 11:28:24;;;;;;;1.37;0.60;;;13.30;99.90;;;;;;6095503;23;20780;-70
2022/11/02 11:31:06;;;;;;;1.70;0.50;;;13.20;99.90;;;;;;6095836;23;20421;-70
2022/11/02 11:33:40;;;;;;;0.77;0.40;;;13.10;99.90;;;;;;6095403;23;20417;-71
2022/11/02 11:36:09;;;;;;;0.40;0.40;;;12.90;99.90;;;;;;6095994;23;20173;-73
2022/11/02 11:38:36;;;;;;;0.40;0.40;;;12.50;99.90;;;;;;6102306;23;20458;-70
2022/11/02 11:41:04;;;;;;;0.43;0.40;;;12.10;99.90;;;;;;6112416;23;20185;-69
2022/11/02 11:43:37;;;;;;;0.68;0.68;;;11.90;99.90;;;;;;6110687;23;20186;-70
2022/11/02 11:46:06;;;;;;;1.85;0.40;;;11.90;99.90;;;;;;6096585;23;20179;-70
2022/11/02 11:48:36;;;;;;;0.63;0.63;;;11.90;99.90;;;;;;6096949;23;20517;-71
2022/11/02 11:51:04;;;;;;;0.20;0.20;;;12.00;99.90;;;;;;6096789;23;20176;-70
2022/11/02 11:53:31;;;;;;;0.22;0.22;;;12.10;99.90;;;;;;6095390;23;20186;-71
2022/11/02 11:55:59;;;;;;;0.60;0.40;;;12.20;99.90;;;;;;6095902;23;20182;-71
2022/11/02 11:58:30;;;;;;;2.40;0.50;;;12.30;99.90;;;;;;6095683;23;20202;-71
2022/11/02 12:01:07;;;;;;;0.30;0.30;;;12.40;99.90;;;;;;6094667;23;20267;-70
2022/11/02 12:03:51;;;;;;;2.65;0.45;;;12.50;99.90;;;;;;6094053;23;20171;-71
2022/11/02 12:06:25;;;;;;;0.60;0.60;;;12.60;99.90;;;;;;6095550;23;20233;-70
2022/11/02 12:08:56;;;;;;;0.77;0.77;;;12.60;99.90;;;;;;6095325;23;20457;-70
2022/11/02 12:11:33;;;;;;;0.53;0.53;;;12.50;99.90;;;;;;6095083;23;20411;-70
2022/11/02 12:14:19;;;;;;;2.47;0.60;;;12.60;99.90;;;;;;6093285;23;20472;-70
2022/11/02 12:17:08;;;;;;;0.60;0.60;;;12.60;99.90;;;;;;6094897;23;20420;-69
2022/11/02 12:19:52;;;;;;;3.93;0.53;;;12.70;99.90;;;;;;6094779;23;20509;-71
2022/11/02 12:22:29;;;;;;;3.20;1.13;;;12.80;99.90;;;;;;6094755;23;20411;-70
2022/11/02 12:25:15;;;;;;;0.50;0.50;;;12.80;99.90;;;;;;6094276;23;20414;-70
2022/11/02 12:27:50;;;;;;;0.63;0.53;;;12.90;99.90;;;;;;6095034;23;20496;-70
2022/11/02 12:30:20;;;;;;;0.40;0.40;;;13.00;99.90;;;;;;6093613;23;20912;-66
2022/11/02 12:33:09;;;;;;;1.30;0.67;;;13.10;99.90;;;;;;6094572;23;20427;-66
2022/11/02 12:35:49;;;;;;;3.70;0.33;;;13.20;99.90;;;;;;6094583;23;20493;-66
2022/11/02 12:38:43;;;;;;;0.50;0.50;;;13.20;99.90;;;;;;6094533;23;20449;-66
2022/11/02 12:41:12;;;;;;;4.90;0.70;;;13.30;99.90;;;;;;6094939;23;20413;-66
2022/11/02 12:43:41;;;;;;;0.40;0.40;;;13.40;99.90;;;;;;6092690;23;20452;-66
2022/11/02 12:46:25;;;;;;;0.50;0.50;;;13.50;99.90;;;;;;6092530;23;20442;-66
2022/11/02 12:49:02;;;;;;;0.87;0.83;;;13.40;99.90;;;;;;6093531;23;20455;-66
2022/11/02 12:51:32;;;;;;;0.40;0.40;;;13.50;99.90;;;;;;6094517;23;20415;-66
2022/11/02 12:54:05;;;;;;;0.30;0.30;;;13.60;99.90;;;;;;6092967;23;20418;-67
2022/11/02 12:56:42;;;;;;;2.40;0.47;;;13.60;99.90;;;;;;6093884;23;20410;-65
2022/11/02 12:59:15;;;;;;;1.47;0.47;;;13.70;99.90;;;;;;6094658;23;20498;-67
2022/11/02 13:01:45;;;;;;;0.57;0.40;;;13.70;99.90;;;;;;6092954;23;20871;-67
2022/11/02 13:04:17;;;;;;;1.10;0.60;;;13.80;99.90;;;;;;6094627;23;20411;-66
2022/11/02 13:06:46;;;;;;;3.70;0.70;;;13.90;99.90;;;;;;6094495;23;20883;-67
2022/11/02 13:09:21;;;;;;;0.20;0.20;;;13.90;99.90;;;;;;6094648;23;20428;-70
2022/11/02 13:11:53;;;;;;;0.20;0.20;;;14.00;99.90;;;;;;6095148;23;20418;-70
2022/11/02 13:14:21;;;;;;;1.13;0.33;;;14.20;99.90;;;;;;6092683;23;20508;-69
2022/11/02 13:16:55;;;;;;;1.60;0.73;;;14.10;99.90;;;;;;6093734;23;20501;-69
2022/11/02 13:19:28;;;;;;;0.93;0.37;;;14.00;99.90;;;;;;6094125;23;20416;-69
2022/11/02 13:21:57;;;;;;;0.20;0.20;;;13.90;99.90;;;;;;6092912;23;20427;-70
2022/11/02 13:24:34;;;;;;;0.20;0.20;;;13.90;99.90;;;;;;6092878;23;20943;-70
2022/11/02 13:27:05;;;;;;;3.70;0.40;;;13.80;99.90;;;;;;6093358;23;20410;-69
2022/11/02 13:29:39;;;;;;;0.40;0.40;;;13.80;99.90;;;;;;6093488;23;20412;-68
2022/11/02 13:32:15;;;;;;;1.90;0.80;;;13.80;99.90;;;;;;6092518;23;20417;-70
2022/11/02 13:34:45;;;;;;;2.30;1.10;;;13.80;99.90;;;;;;6093309;23;20414;-70
2022/11/02 13:37:16;;;;;;;0.43;0.43;;;13.80;99.90;;;;;;6104732;23;20439;-72
2022/11/02 13:39:47;;;;;;;0.27;0.27;;;13.80;99.90;;;;;;6094898;23;20408;-69
2022/11/02 13:42:37;;;;;;;2.47;0.30;;;13.70;99.90;;;;;;6095284;23;20411;-71
2022/11/02 13:45:46;;;;;;;0.20;0.20;;;13.70;99.90;;;;;;6096083;23;20530;-70
2022/11/02 13:48:37;;;;;;;0.20;0.20;;;13.70;99.90;;;;;;6093940;23;20459;-70
2022/11/02 13:51:10;;;;;;;2.17;0.73;;;13.80;99.90;;;;;;6095833;23;20422;-71
2022/11/02 13:53:41;;;;;;;0.30;0.30;;;13.80;99.90;;;;;;6093188;23;20734;-68
2022/11/02 13:56:09;;;;;;;1.60;0.50;;;13.80;99.90;;;;;;6092513;23;20411;-68
2022/11/02 13:58:39;;;;;;;1.80;0.70;;;13.80;99.90;;;;;;6092821;23;20752;-71
2022/11/02 14:01:08;;;;;;;0.23;0.23;;;13.80;99.90;;;;;;6094045;23;20434;-71
2022/11/02 14:03:50;;;;;;;4.73;0.40;;;13.80;99.90;;;;;;6095095;23;20430;-69
2022/11/02 14:06:19;;;;;;;0.20;0.20;;;13.90;99.90;;;;;;6092524;23;20412;-69
2022/11/02 14:08:49;;;;;;;7.10;1.10;;;13.90;99.90;;;;;;6091588;23;21004;-71
2022/11/02 14:11:34;;;;;;;2.60;0.40;;;14.00;99.90;;;;;;6093082;23;20443;-69
2022/11/02 14:14:23;;;;;;;0.57;0.57;;;14.00;99.90;;;;;;6094085;23;20744;-69
2022/11/02 14:17:12;;;;;;;4.13;0.83;;;14.00;99.90;;;;;;6084485;23;20994;-69
2022/11/02 14:19:53;;;;;;;0.77;0.50;;;13.90;99.90;;;;;;6093178;23;20767;-69
2022/11/02 14:22:20;;;;;;;1.47;0.20;;;13.90;99.90;;;;;;6101951;23;20422;-69
2022/11/02 14:24:55;;;;;;;0.20;0.20;;;13.90;99.90;;;;;;6092217;23;20427;-67
2022/11/02 14:27:30;;;;;;;0.20;0.20;;;13.80;99.90;;;;;;6094258;23;20774;-71
2022/11/02 14:29:57;;;;;;;1.53;0.30;;;13.80;99.90;;;;;;6092495;23;20751;-69
2022/11/02 14:32:50;;;;;;;0.40;0.40;;;13.70;99.90;;;;;;6093230;23;20451;-70
2022/11/02 14:35:40;;;;;;;0.40;0.27;;;13.60;99.90;;;;;;6094524;23;20434;-69
2022/11/02 14:38:35;;;;;;;4.20;1.50;;;13.60;99.90;;;;;;6091288;23;20446;-68
2022/11/02 14:41:16;;;;;;;0.83;0.20;;;13.60;99.90;;;;;;6089752;23;20424;-69
2022/11/02 14:44:05;;;;;;;0.33;0.20;;;13.50;99.90;;;;;;6088791;23;20414;-70
2022/11/02 14:46:45;;;;;;;1.20;1.20;;;13.40;99.90;;;;;;6088864;23;20424;-69
2022/11/02 14:49:18;;;;;;;0.43;0.43;;;13.40;99.90;;;;;;6091182;23;20438;-70
2022/11/02 14:51:56;;;;;;;1.23;0.30;;;13.30;99.90;;;;;;6093909;23;20410;-69
2022/11/02 14:54:23;;;;;;;0.40;0.40;;;13.30;99.90;;;;;;6090283;23;20411;-67
2022/11/02 14:56:54;;;;;;;0.57;0.40;;;13.20;99.90;;;;;;6091448;23;20450;-68
2022/11/02 14:59:25;;;;;;;0.30;0.30;;;13.10;99.90;;;;;;6089560;23;20714;-69
2022/11/02 15:01:56;;;;;;;0.70;0.37;;;13.10;99.90;;;;;;6092953;23;20731;-69
2022/11/02 15:04:25;;;;;;;7.23;0.77;;;13.00;99.90;;;;;;6092158;23;20435;-68
2022/11/02 15:06:55;;;;;;;1.90;0.40;;;13.00;99.90;;;;;;6092498;23;20546;-68
2022/11/02 15:09:57;;;;;;;0.20;0.20;;;12.90;99.90;;;;;;6093820;23;20751;-69
2022/11/02 15:12:30;;;;;;;3.10;0.83;;;12.90;99.90;;;;;;6092457;23;20433;-69
2022/11/02 15:15:05;;;;;;;1.90;0.30;;;12.90;99.90;;;;;;6093044;23;20424;-69
2022/11/02 15:17:52;;;;;;;0.50;0.50;;;12.80;99.90;;;;;;6092129;23;20457;-69
2022/11/02 15:20:27;;;;;;;0.20;0.20;;;12.80;99.90;;;;;;6091514;23;20441;-67
2022/11/02 15:23:05;;;;;;;2.00;0.97;;;12.70;99.90;;;;;;6092763;23;20484;-68
2022/11/02 15:25:35;;;;;;;4.73;0.93;;;12.70;99.90;;;;;;6094192;23;20485;-70
2022/11/02 15:28:11;;;;;;;2.75;0.73;;;12.70;99.90;;;;;;6092334;23;20509;-70
2022/11/02 15:30:43;;;;;;;1.17;0.50;;;12.60;99.90;;;;;;6094260;23;20177;-69
2022/11/02 15:33:19;;;;;;;3.13;1.17;;;12.60;99.90;;;;;;6093936;23;20439;-70
2022/11/02 15:35:47;;;;;;;6.03;1.60;;;12.40;99.90;;;;;;6098629;23;20181;-71
2022/11/02 15:38:16;;;;;;;5.80;1.20;;;12.40;99.90;;;;;;6097458;23;20773;-71
2022/11/02 15:40:48;;;;;;;0.60;0.60;;;12.30;99.90;;;;;;6092388;23;21250;-69
2022/11/02 15:43:37;;;;;;;0.47;0.47;;;12.20;99.90;;;;;;6093751;23;20479;-70
2022/11/02 15:46:13;;;;;;;2.20;0.70;;;12.10;99.90;;;;;;6092762;23;20174;-71
2022/11/02 15:48:46;;;;;;;2.60;1.52;;;12.00;99.90;;;;;;6094800;23;20453;-70
2022/11/02 15:51:21;;;;;;;0.40;0.40;;;12.00;99.90;;;;;;6093696;23;20168;-70
2022/11/02 15:54:19;;;;;;;0.40;0.40;;;11.90;99.90;;;;;;6092593;23;20170;-70
2022/11/02 15:56:50;;;;;;;12.70;1.10;;;11.80;99.90;;;;;;6094126;23;20178;-70
2022/11/02 16:00:06;;;;;;;0.85;0.85;;;11.70;99.90;;;;;;6093563;23;20170;-69
2022/11/02 16:02:36;;;;;;;1.98;0.80;;;11.70;99.90;;;;;;5976792;24;20240;-68
2022/11/02 16:05:05;;;;;;;3.08;0.95;;;11.60;99.90;;;;;;6067218;23;20291;-69
2022/11/02 16:07:32;;;;;;;0.77;0.73;;;11.50;99.90;;;;;;6093337;23;20240;-70
2022/11/02 16:10:21;;;;;;;6.18;1.80;;;11.50;99.90;;;;;;6095678;23;20186;-71
2022/11/02 16:12:55;;;;;;;4.53;0.77;;;11.40;99.90;;;;;;6090196;23;20202;-70
2022/11/02 16:15:22;;;;;;;0.40;0.40;;;11.30;99.90;;;;;;6092407;23;20168;-71
2022/11/02 16:17:50;;;;;;;3.50;1.45;;;11.30;99.90;;;;;;6089715;23;20227;-71
2022/11/02 16:20:19;;;;;;;0.85;0.85;;;11.20;99.90;;;;;;6090493;23;20274;-70
2022/11/02 16:22:48;;;;;;;0.60;0.60;;;11.20;99.90;;;;;;6093478;23;20190;-69
2022/11/02 16:25:20;;;;;;;0.55;0.55;;;11.10;99.90;;;;;;6092172;23;20502;-69
2022/11/02 16:27:47;;;;;;;1.85;0.63;;;11.10;99.90;;;;;;6092296;23;20999;-70
2022/11/02 16:30:19;;;;;;;0.70;0.70;;;11.00;99.90;;;;;;6093299;23;20197;-69
2022/11/02 16:32:50;;;;;;;4.22;1.08;;;10.90;99.90;;;;;;6089783;23;20179;-71
2022/11/02 16:35:18;;;;;;;5.95;0.82;;;10.90;99.90;;;;;;6090229;23;20902;-70
2022/11/02 16:37:45;;;;;;;8.10;2.33;;;10.90;99.90;;;;;;6091046;23;20594;-74
2022/11/02 16:40:18;;;;;;;5.18;0.80;;;10.90;99.90;;;;;;6090880;23;20656;-68
2022/11/02 16:42:46;;;;;;;1.40;0.75;;;10.90;99.90;;;;;;6089933;23;20266;-69
2022/11/02 16:45:32;;;;;;;4.88;0.68;;;10.80;99.90;;;;;;6091054;23;20189;-70
2022/11/02 16:47:58;;;;;;;1.45;1.45;;;10.80;99.90;;;;;;6090633;23;20647;-70
2022/11/02 16:50:27;;;;;;;0.88;0.75;;;10.70;99.90;;;;;;6095005;23;20188;-69
2022/11/02 16:52:55;;;;;;;1.25;1.10;;;10.70;99.90;;;;;;6088476;23;20192;-70
2022/11/02 16:55:41;;;;;;;0.47;0.47;;;10.70;99.90;;;;;;6090289;23;20185;-70
2022/11/02 16:58:14;;;;;;;2.35;1.00;;;10.70;99.90;;;;;;6090774;23;20201;-71
2022/11/02 17:00:54;;;;;;;4.70;1.40;;;10.60;99.90;;;;;;6092837;23;20613;-70
2022/11/02 17:03:24;;;;;;;0.77;0.77;;;10.60;99.90;;;;;;6112648;23;20090;-70
2022/11/02 17:05:52;;;;;;;4.97;0.88;;;10.60;99.90;;;;;;6112734;23;20479;-71
2022/11/02 17:08:28;;;;;;;3.08;2.65;;;10.50;99.90;;;;;;6103715;23;20673;-71
2022/11/02 17:10:58;;;;;;;1.88;1.40;;;10.50;99.90;;;;;;6094677;23;20181;-70
2022/11/02 17:13:26;;;;;;;1.10;1.10;;;10.50;99.90;;;;;;6092760;23;20175;-70
2022/11/02 17:15:55;;;;;;;1.23;1.23;;;10.40;99.90;;;;;;6094014;23;20189;-70
2022/11/02 17:18:29;;;;;;;2.65;1.27;;;10.40;99.90;;;;;;6095922;23;20215;-71
2022/11/02 17:21:16;;;;;;;4.45;1.45;;;10.30;99.90;;;;;;6095940;23;20198;-70
2022/11/02 17:23:44;;;;;;;1.50;1.50;;;10.30;99.90;;;;;;6093588;23;20190;-71
2022/11/02 17:26:28;;;;;;;1.67;1.55;;;10.20;99.90;;;;;;6094379;23;20568;-71
2022/11/02 17:28:56;;;;;;;1.23;1.23;;;10.20;99.90;;;;;;6093769;23;20392;-69
2022/11/02 17:31:26;;;;;;;4.55;1.23;;;10.20;99.90;;;;;;6093642;23;20183;-69
2022/11/02 17:33:53;;;;;;;4.57;2.50;;;10.20;99.90;;;;;;6093519;23;20187;-70
2022/11/02 17:36:20;;;;;;;8.00;2.85;;;10.20;99.90;;;;;;6093789;23;20494;-69
2022/11/02 17:38:47;;;;;;;1.95;1.85;;;10.10;99.90;;;;;;6093323;23;20228;-69
2022/11/02 17:44:03;;;;;;;3.65;1.58;;;10.10;99.90;;;;;;6093119;23;20217;-68
2022/11/02 17:46:30;;;;;;;3.72;2.63;;;10.10;99.90;;;;;;6094138;23;20182;-68
2022/11/02 17:48:57;;;;;;;2.20;2.10;;;10.10;99.90;;;;;;6094333;23;20207;-69
2022/11/02 17:51:25;;;;;;;5.05;2.55;;;10.10;99.90;;;;;;6092144;23;20718;-69
2022/11/02 17:53:52;;;;;;;2.50;2.30;;;10.00;99.90;;;;;;6090497;23;20210;-68
2022/11/02 17:56:18;;;;;;;4.78;2.38;;;10.00;99.90;;;;;;6092487;23;20594;-69
2022/11/02 17:58:45;;;;;;;2.90;1.83;;;9.90;99.90;;;;;;6093253;23;20214;-71
2022/11/02 18:01:14;;;;;;;2.85;2.33;;;9.90;99.90;;;;;;6093594;23;20206;-70
2022/11/02 18:03:40;;;;;;;1.42;1.40;;;9.90;99.90;;;;;;6092437;23;20210;-69
2022/11/02 18:06:07;;;;;;;1.55;1.45;;;9.90;99.90;;;;;;6093626;23;20187;-71
2022/11/02 18:09:09;;;;;;;1.40;1.40;;;9.90;99.90;;;;;;6094008;23;20564;-70
2022/11/02 18:11:21;;;;;;;4.00;1.85;;;9.90;99.90;;;;;;6092781;23;20665;-70
2022/11/02 18:13:48;;;;;;;1.60;1.50;;;9.80;99.90;;;;;;6092687;23;20208;-70
2022/11/02 18:16:16;;;;;;;1.42;1.40;;;9.80;99.90;;;;;;6093972;23;20194;-71